createdAt,value
2023-03-16T00:03:54.697Z,13.20
2023-03-16T00:10:37.048Z,13.05
2023-03-16T00:17:21.207Z,12.48
2023-03-16T00:24:03.733Z,13.63
2023-03-16T00:30:47.414Z,13.20
2023-03-16T00:37:32.761Z,13.98
2023-03-16T00:44:16.154Z,14.25
2023-03-16T00:50:58.482Z,13.27
2023-03-16T00:57:41.442Z,15.07
2023-03-16T01:04:23.781Z,14.48
2023-03-16T01:11:10.429Z,13.85
2023-03-16T01:17:52.737Z,13.38
2023-03-16T01:24:35.470Z,13.32
2023-03-16T01:31:17.877Z,14.10
2023-03-16T01:38:00.343Z,13.15
2023-03-16T01:44:57.415Z,12.55
2023-03-16T01:51:54.854Z,13.60
2023-03-16T01:58:39.905Z,12.77
2023-03-16T02:05:57.718Z,16.83
2023-03-16T02:12:40.802Z,15.07
2023-03-16T02:19:50.594Z,15.07
2023-03-16T02:27:19.561Z,13.45
2023-03-16T02:34:02.563Z,12.45
2023-03-16T02:40:52.773Z,12.90
2023-03-16T02:47:42.957Z,11.88
2023-03-16T02:54:25.394Z,12.93
2023-03-16T03:01:08.204Z,14.77
2023-03-16T03:07:51.426Z,14.40
2023-03-16T03:14:37.948Z,16.08
2023-03-16T03:21:20.952Z,14.18
2023-03-16T03:28:05.549Z,13.80
2023-03-16T03:34:48.217Z,14.82
2023-03-16T03:41:32.847Z,14.45
2023-03-16T03:48:17.403Z,14.98
2023-03-16T03:55:00.813Z,13.65
2023-03-16T04:01:43.275Z,14.18
2023-03-16T04:08:25.640Z,13.55
2023-03-16T04:15:08.896Z,12.18
2023-03-16T04:22:01.142Z,12.32
2023-03-16T04:28:43.740Z,12.43
2023-03-16T04:35:29.732Z,12.07
2023-03-16T04:42:13.071Z,12.65
2023-03-16T04:48:58.210Z,13.52
2023-03-16T04:55:41.942Z,13.43
2023-03-16T05:02:24.446Z,13.02
2023-03-16T05:09:08.613Z,12.60
2023-03-16T05:15:56.120Z,12.18
2023-03-16T05:22:45.772Z,11.73
2023-03-16T05:29:36.074Z,13.95
2023-03-16T05:36:18.644Z,13.10
2023-03-16T05:43:04.666Z,13.07
2023-03-16T05:49:50.548Z,13.13
2023-03-16T05:56:41.502Z,14.15
2023-03-16T06:03:24.748Z,13.40
2023-03-16T06:10:11.395Z,14.95
2023-03-16T06:16:54.724Z,13.60
2023-03-16T06:23:37.862Z,13.73
2023-03-16T06:30:22.349Z,13.85
2023-03-16T06:37:05.179Z,13.55
2023-03-16T06:43:48.217Z,12.70
2023-03-16T06:50:31.136Z,13.63
2023-03-16T06:57:14.008Z,13.02
2023-03-16T07:03:56.449Z,13.02
2023-03-16T07:10:43.204Z,13.98
2023-03-16T07:17:25.688Z,14.13
2023-03-16T07:24:10.358Z,13.13
2023-03-16T07:31:03.334Z,13.07
2023-03-16T07:37:50.586Z,14.05
2023-03-16T07:44:34.519Z,11.88
2023-03-16T07:51:17.045Z,12.68
2023-03-16T07:58:05.652Z,11.10
2023-03-16T08:04:50.505Z,11.40
2023-03-16T08:11:33.791Z,10.65
2023-03-16T08:18:19.005Z,10.05
2023-03-16T08:25:03.408Z,10.07
2023-03-16T08:31:46.999Z,9.70
2023-03-16T08:38:39.943Z,9.88
2023-03-16T08:45:24.804Z,7.32
2023-03-16T08:52:10.164Z,7.93
2023-03-16T08:58:53.019Z,6.63
2023-03-16T09:05:35.384Z,7.13
2023-03-16T09:12:17.832Z,6.72
2023-03-16T09:19:01.142Z,6.53
2023-03-16T09:25:43.433Z,6.32
2023-03-16T09:32:26.387Z,5.95
2023-03-16T09:39:08.896Z,5.68
2023-03-16T09:46:20.992Z,5.60
2023-03-16T09:53:18.985Z,5.50
2023-03-16T10:00:48.259Z,5.57
2023-03-16T10:08:07.716Z,5.47
2023-03-16T10:15:11.835Z,5.55
2023-03-16T10:21:57.798Z,4.38
2023-03-16T10:28:42.286Z,4.30
2023-03-16T10:35:30.677Z,4.15
2023-03-16T10:42:19.961Z,4.45
2023-03-16T10:49:02.288Z,3.72
2023-03-16T10:55:44.950Z,4.05
2023-03-16T11:02:35.443Z,3.92
2023-03-16T11:09:41.766Z,3.05
2023-03-16T11:16:39.038Z,3.25
2023-03-16T11:23:29.312Z,3.25
2023-03-16T11:30:30.939Z,3.10
2023-03-16T11:37:25.690Z,3.10
2023-03-16T11:44:28.778Z,3.00
2023-03-16T11:51:44.905Z,2.65
2023-03-16T11:58:28.217Z,2.50
2023-03-16T12:05:48.616Z,2.33
2023-03-16T12:13:11.923Z,2.88
2023-03-16T12:20:07.194Z,2.60
2023-03-16T12:26:49.994Z,2.72
2023-03-16T12:34:04.579Z,2.55
2023-03-16T12:41:03.644Z,3.10
2023-03-16T12:48:00.239Z,3.30
2023-03-16T12:55:08.372Z,3.20
2023-03-16T13:02:03.615Z,4.07
2023-03-16T13:08:51.334Z,3.00
2023-03-16T13:15:34.284Z,3.20
2023-03-16T13:22:22.713Z,3.60
2023-03-16T13:29:25.708Z,2.95
2023-03-16T13:36:10.354Z,3.55
2023-03-16T13:42:55.187Z,3.63
2023-03-16T13:49:54.751Z,2.83
2023-03-16T13:56:40.244Z,2.88
2023-03-16T14:03:24.557Z,2.65
2023-03-16T14:10:09.651Z,2.72
2023-03-16T14:16:53.557Z,2.70
2023-03-16T14:23:44.045Z,2.88
2023-03-16T14:30:29.074Z,2.92
2023-03-16T14:37:14.702Z,3.05
2023-03-16T14:44:03.017Z,3.13
2023-03-16T14:50:45.828Z,2.80
2023-03-16T14:57:28.333Z,3.85
2023-03-16T15:04:15.136Z,2.88
2023-03-16T15:11:06.022Z,3.17
2023-03-16T15:17:51.247Z,3.00
2023-03-16T15:24:33.812Z,2.90
2023-03-16T15:31:16.474Z,3.00
2023-03-16T15:38:00.569Z,2.67
2023-03-16T15:44:44.100Z,2.65
2023-03-16T15:51:29.681Z,2.75
2023-03-16T15:58:27.542Z,3.38
2023-03-16T16:05:10.279Z,3.10
2023-03-16T16:11:52.633Z,3.00
2023-03-16T16:18:37.288Z,3.72
2023-03-16T16:25:24.640Z,3.20
2023-03-16T16:32:23.253Z,3.42
2023-03-16T16:39:06.551Z,3.60
2023-03-16T16:45:49.683Z,3.10
2023-03-16T16:52:32.271Z,3.22
2023-03-16T16:59:18.340Z,2.58
2023-03-16T17:06:00.815Z,2.38
2023-03-16T17:12:43.936Z,3.10
2023-03-16T17:19:27.900Z,2.88
2023-03-16T17:26:38.304Z,2.38
2023-03-16T17:33:21.020Z,2.30
2023-03-16T17:40:03.425Z,2.33
2023-03-16T17:46:46.393Z,2.67
2023-03-16T17:53:28.727Z,2.33
2023-03-16T18:00:29.720Z,2.25
2023-03-16T18:07:14.608Z,2.72
2023-03-16T18:13:57.104Z,2.30
2023-03-16T18:20:40.269Z,2.70
2023-03-16T18:27:22.628Z,2.17
2023-03-16T18:34:06.475Z,2.75
2023-03-16T18:40:49.297Z,3.45
2023-03-16T18:47:32.980Z,3.28
2023-03-16T18:54:21.984Z,3.50
2023-03-16T19:01:04.985Z,3.03
2023-03-16T19:07:51.308Z,2.63
2023-03-16T19:14:37.074Z,3.08
2023-03-16T19:21:22.925Z,3.13
2023-03-16T19:28:07.585Z,2.88
2023-03-16T19:34:50.067Z,3.40
2023-03-16T19:41:35.349Z,3.63
2023-03-16T19:48:22.580Z,2.85
2023-03-16T19:55:05.278Z,3.47
2023-03-16T20:01:48.159Z,4.10
2023-03-16T20:08:30.951Z,5.10
2023-03-16T20:15:19.889Z,5.85
2023-03-16T20:22:02.184Z,4.97
2023-03-16T20:28:45.009Z,5.90
2023-03-16T20:35:32.390Z,4.90
2023-03-16T20:42:18.999Z,4.47
2023-03-16T20:49:01.450Z,5.40
2023-03-16T20:55:43.912Z,4.15
2023-03-16T21:02:35.112Z,6.22
2023-03-16T21:09:19.049Z,6.72
2023-03-16T21:16:03.196Z,6.90
2023-03-16T21:22:46.019Z,8.88
2023-03-16T21:29:28.586Z,8.55
2023-03-16T21:36:18.153Z,4.60
2023-03-16T21:43:00.699Z,6.53
2023-03-16T21:49:43.354Z,6.65
2023-03-16T21:56:26.257Z,7.20
2023-03-16T22:03:23.503Z,8.52
2023-03-16T22:10:14.583Z,15.38
2023-03-16T22:16:57.287Z,9.85
2023-03-16T22:23:40.871Z,7.35
2023-03-16T22:30:27.324Z,6.60
2023-03-16T22:37:12.361Z,7.47
2023-03-16T22:43:55.507Z,6.30
2023-03-16T22:50:37.860Z,6.93
2023-03-16T22:57:20.479Z,8.63
2023-03-16T23:04:03.408Z,7.07
2023-03-16T23:10:46.106Z,6.50
2023-03-16T23:17:28.443Z,6.10
2023-03-16T23:24:11.458Z,6.60
2023-03-16T23:30:54.012Z,5.50
2023-03-16T23:37:36.516Z,6.80
2023-03-16T23:44:22.545Z,6.07
2023-03-16T23:51:05.582Z,6.18
2023-03-16T23:57:48.540Z,6.03
